sensor_id;sensor_type;location;lat;lon;timestamp;pressure;altitude;pressure_sealevel;temperature;humidity
73103;BME280;61294;65.988;29.172;2023-06-01T00:02:09;97018.69;;;2.36;91.62
73103;BME280;61294;65.988;29.172;2023-06-01T00:04:37;97007.44;;;2.56;91.81
73103;BME280;61294;65.988;29.172;2023-06-01T00:07:09;97004.84;;;2.39;90.74
73103;BME280;61294;65.988;29.172;2023-06-01T00:09:36;97005.72;;;2.44;90.61
73103;BME280;61294;65.988;29.172;2023-06-01T00:12:02;96951.09;;;2.10;91.25
73103;BME280;61294;65.988;29.172;2023-06-01T00:14:28;97013.47;;;2.29;91.03
73103;BME280;61294;65.988;29.172;2023-06-01T00:16:54;97015.19;;;2.22;91.79
73103;BME280;61294;65.988;29.172;2023-06-01T00:19:22;97002.19;;;2.11;92.04
73103;BME280;61294;65.988;29.172;2023-06-01T00:21:50;97011.69;;;2.14;91.72
73103;BME280;61294;65.988;29.172;2023-06-01T00:24:16;97015.19;;;2.22;91.71
73103;BME280;61294;65.988;29.172;2023-06-01T00:26:42;97014.34;;;2.21;92.40
73103;BME280;61294;65.988;29.172;2023-06-01T00:29:07;97017.75;;;2.08;92.08
73103;BME280;61294;65.988;29.172;2023-06-01T00:31:33;97016.91;;;2.12;93.41
73103;BME280;61294;65.988;29.172;2023-06-01T00:33:59;97003.94;;;2.17;92.69
73103;BME280;61294;65.988;29.172;2023-06-01T00:36:25;97020.38;;;2.14;92.86
73103;BME280;61294;65.988;29.172;2023-06-01T00:38:51;96999.56;;;2.03;93.68
73103;BME280;61294;65.988;29.172;2023-06-01T00:41:16;97018.66;;;2.13;93.35
73103;BME280;61294;65.988;29.172;2023-06-01T00:43:42;97016.91;;;2.09;93.14
73103;BME280;61294;65.988;29.172;2023-06-01T00:46:08;97014.31;;;2.09;93.29
73103;BME280;61294;65.988;29.172;2023-06-01T00:48:38;96997.81;;;1.96;93.24
73103;BME280;61294;65.988;29.172;2023-06-01T00:51:04;96999.56;;;1.94;93.65
73103;BME280;61294;65.988;29.172;2023-06-01T00:53:30;97001.31;;;2.09;93.47
73103;BME280;61294;65.988;29.172;2023-06-01T00:55:56;97011.75;;;2.15;93.53
73103;BME280;61294;65.988;29.172;2023-06-01T00:58:21;97007.34;;;2.03;93.38
73103;BME280;61294;65.988;29.172;2023-06-01T01:00:47;96950.19;;;1.79;93.48
73103;BME280;61294;65.988;29.172;2023-06-01T01:03:14;97002.13;;;1.89;93.92
73103;BME280;61294;65.988;29.172;2023-06-01T01:05:41;97003.84;;;1.90;94.43
73103;BME280;61294;65.988;29.172;2023-06-01T01:08:27;96994.31;;;1.88;94.56
73103;BME280;61294;65.988;29.172;2023-06-01T01:11:07;97006.47;;;1.92;94.75
73103;BME280;61294;65.988;29.172;2023-06-01T01:14:45;97007.31;;;1.88;94.99
73103;BME280;61294;65.988;29.172;2023-06-01T01:16:42;96996.06;;;1.84;95.31
73103;BME280;61294;65.988;29.172;2023-06-01T01:25:10;96999.56;;;1.97;95.55
73103;BME280;61294;65.988;29.172;2023-06-01T01:30:28;96990.06;;;2.07;95.55
73103;BME280;61294;65.988;29.172;2023-06-01T01:33:05;96993.53;;;2.09;95.18
73103;BME280;61294;65.988;29.172;2023-06-01T01:35:36;96981.41;;;2.13;95.64
73103;BME280;61294;65.988;29.172;2023-06-01T01:38:02;96996.16;;;2.31;95.45
73103;BME280;61294;65.988;29.172;2023-06-01T01:40:28;96975.34;;;2.04;95.17
73103;BME280;61294;65.988;29.172;2023-06-01T01:42:54;97003.06;;;2.12;95.69
73103;BME280;61294;65.988;29.172;2023-06-01T01:45:21;97000.41;;;2.01;95.68
73103;BME280;61294;65.988;29.172;2023-06-01T01:50:18;97008.19;;;1.85;94.77
73103;BME280;61294;65.988;29.172;2023-06-01T01:52:47;97014.22;;;1.83;94.73
73103;BME280;61294;65.988;29.172;2023-06-01T01:55:14;97005.59;;;1.88;95.15
73103;BME280;61294;65.988;29.172;2023-06-01T01:57:43;97004.75;;;2.00;95.00
73103;BME280;61294;65.988;29.172;2023-06-01T02:00:10;97017.72;;;1.93;95.32
73103;BME280;61294;65.988;29.172;2023-06-01T02:02:38;96967.44;;;1.66;94.93
73103;BME280;61294;65.988;29.172;2023-06-01T02:05:04;97003.84;;;1.87;95.22
73103;BME280;61294;65.988;29.172;2023-06-01T02:07:30;97006.41;;;1.75;94.72
73103;BME280;61294;65.988;29.172;2023-06-01T02:09:56;96993.41;;;1.73;94.33
73103;BME280;61294;65.988;29.172;2023-06-01T02:12:22;96990.81;;;1.64;93.70
73103;BME280;61294;65.988;29.172;2023-06-01T02:14:47;96995.09;;;1.58;93.76
73103;BME280;61294;65.988;29.172;2023-06-01T02:17:13;96979.50;;;1.50;94.09
73103;BME280;61294;65.988;29.172;2023-06-01T02:19:42;96977.69;;;1.40;93.99
73103;BME280;61294;65.988;29.172;2023-06-01T02:22:08;96989.97;;;1.68;94.28
73103;BME280;61294;65.988;29.172;2023-06-01T02:24:33;96996.00;;;1.70;93.53
73103;BME280;61294;65.988;29.172;2023-06-01T02:26:59;96991.66;;;1.59;92.70
73103;BME280;61294;65.988;29.172;2023-06-01T02:29:26;96989.91;;;1.61;93.08
73103;BME280;61294;65.988;29.172;2023-06-01T02:32:01;96983.00;;;1.61;92.46
73103;BME280;61294;65.988;29.172;2023-06-01T02:34:26;96997.75;;;1.75;93.11
73103;BME280;61294;65.988;29.172;2023-06-01T02:36:52;96991.75;;;1.91;91.98
73103;BME280;61294;65.988;29.172;2023-06-01T02:39:21;96991.78;;;1.99;91.89
73103;BME280;61294;65.988;29.172;2023-06-01T02:41:47;96956.22;;;1.76;90.67
73103;BME280;61294;65.988;29.172;2023-06-01T02:44:13;96983.09;;;1.92;90.36
73103;BME280;61294;65.988;29.172;2023-06-01T02:46:42;96972.69;;;1.86;91.53
73103;BME280;61294;65.988;29.172;2023-06-01T02:49:08;96978.75;;;1.82;89.45
73103;BME280;61294;65.988;29.172;2023-06-01T02:51:34;96975.28;;;1.84;89.75
73103;BME280;61294;65.988;29.172;2023-06-01T02:54:00;96985.72;;;1.98;89.98
73103;BME280;61294;65.988;29.172;2023-06-01T02:56:26;96992.63;;;1.92;89.60
73103;BME280;61294;65.988;29.172;2023-06-01T02:58:52;96981.38;;;1.91;89.86
73103;BME280;61294;65.988;29.172;2023-06-01T03:01:18;96980.50;;;1.89;89.49
73103;BME280;61294;65.988;29.172;2023-06-01T03:03:46;96983.09;;;1.87;89.41
73103;BME280;61294;65.988;29.172;2023-06-01T03:06:12;96997.81;;;1.92;88.27
73103;BME280;61294;65.988;29.172;2023-06-01T03:08:38;96995.22;;;1.88;88.99
73103;BME280;61294;65.988;29.172;2023-06-01T03:11:05;96989.16;;;1.91;89.13
73103;BME280;61294;65.988;29.172;2023-06-01T03:13:31;96986.56;;;1.91;89.58
73103;BME280;61294;65.988;29.172;2023-06-01T03:15:57;96987.41;;;1.85;88.78
73103;BME280;61294;65.988;29.172;2023-06-01T03:18:25;97005.59;;;1.88;88.30
73103;BME280;61294;65.988;29.172;2023-06-01T03:20:51;96977.00;;;1.81;87.36
73103;BME280;61294;65.988;29.172;2023-06-01T03:23:17;96986.50;;;1.74;86.46
73103;BME280;61294;65.988;29.172;2023-06-01T03:25:43;96962.25;;;1.66;87.36
73103;BME280;61294;65.988;29.172;2023-06-01T03:28:09;96989.97;;;1.78;86.08
73103;BME280;61294;65.988;29.172;2023-06-01T03:30:35;96991.66;;;1.71;85.66
73103;BME280;61294;65.988;29.172;2023-06-01T03:33:03;96998.56;;;1.60;84.17
73103;BME280;61294;65.988;29.172;2023-06-01T03:35:38;96978.63;;;1.52;86.14
73103;BME280;61294;65.988;29.172;2023-06-01T03:38:13;97000.28;;;1.62;85.54
73103;BME280;61294;65.988;29.172;2023-06-01T03:40:48;97001.19;;;1.64;84.51
73103;BME280;61294;65.988;29.172;2023-06-01T03:43:23;97004.69;;;1.80;85.33
73103;BME280;61294;65.988;29.172;2023-06-01T03:45:49;96997.75;;;1.79;84.22
73103;BME280;61294;65.988;29.172;2023-06-01T03:48:24;96982.16;;;1.71;84.90
73103;BME280;61294;65.988;29.172;2023-06-01T03:50:52;96988.31;;;1.98;84.92
73103;BME280;61294;65.988;29.172;2023-06-01T03:53:22;96985.72;;;2.09;85.10
73103;BME280;61294;65.988;29.172;2023-06-01T03:55:47;97002.22;;;2.28;84.40
73103;BME280;61294;65.988;29.172;2023-06-01T03:58:14;96981.44;;;2.36;84.78
73103;BME280;61294;65.988;29.172;2023-06-01T04:00:50;96992.72;;;2.53;84.84
73103;BME280;61294;65.988;29.172;2023-06-01T04:03:16;96991.00;;;2.52;83.25
73103;BME280;61294;65.988;29.172;2023-06-01T04:12:50;97003.09;;;2.75;80.38
73103;BME280;61294;65.988;29.172;2023-06-01T04:15:30;97009.19;;;2.80;80.06
73103;BME280;61294;65.988;29.172;2023-06-01T04:18:01;96999.66;;;2.57;78.41
73103;BME280;61294;65.988;29.172;2023-06-01T04:20:30;96995.31;;;2.49;77.10
73103;BME280;61294;65.988;29.172;2023-06-01T04:30:21;97005.69;;;2.38;77.32
73103;BME280;61294;65.988;29.172;2023-06-01T04:33:51;97002.25;;;2.65;79.23
73103;BME280;61294;65.988;29.172;2023-06-01T04:36:00;96995.28;;;2.36;77.71
73103;BME280;61294;65.988;29.172;2023-06-01T04:38:56;96998.75;;;2.51;77.91
73103;BME280;61294;65.988;29.172;2023-06-01T04:41:55;97006.56;;;2.35;76.26
73103;BME280;61294;65.988;29.172;2023-06-01T04:45:08;97011.78;;;2.54;76.95
73103;BME280;61294;65.988;29.172;2023-06-01T04:47:35;97010.91;;;2.53;75.86
73103;BME280;61294;65.988;29.172;2023-06-01T05:24:31;97021.31;;;2.66;66.63
73103;BME280;61294;65.988;29.172;2023-06-01T05:51:25;97042.09;;;3.10;63.01
73103;BME280;61294;65.988;29.172;2023-06-01T06:01:01;97053.41;;;2.75;59.42
73103;BME280;61294;65.988;29.172;2023-06-01T06:14:40;97062.94;;;3.03;60.03
73103;BME280;61294;65.988;29.172;2023-06-01T06:17:31;97052.50;;;3.23;59.41
73103;BME280;61294;65.988;29.172;2023-06-01T06:23:32;97056.84;;;3.08;59.52
73103;BME280;61294;65.988;29.172;2023-06-01T06:26:08;97069.88;;;3.02;58.25
73103;BME280;61294;65.988;29.172;2023-06-01T06:28:57;97064.66;;;2.93;58.63
73103;BME280;61294;65.988;29.172;2023-06-01T06:35:17;97081.13;;;3.40;57.56
73103;BME280;61294;65.988;29.172;2023-06-01T06:37:43;97092.38;;;3.48;55.87
73103;BME280;61294;65.988;29.172;2023-06-01T06:40:09;97081.13;;;3.37;54.79
73103;BME280;61294;65.988;29.172;2023-06-01T06:42:35;97075.88;;;3.48;55.40
73103;BME280;61294;65.988;29.172;2023-06-01T06:45:02;97086.19;;;3.85;56.63
73103;BME280;61294;65.988;29.172;2023-06-01T06:47:28;97077.41;;;4.17;57.00
73103;BME280;61294;65.988;29.172;2023-06-01T06:49:53;97087.06;;;3.99;55.95
73103;BME280;61294;65.988;29.172;2023-06-01T06:52:19;97084.44;;;3.93;56.36
73103;BME280;61294;65.988;29.172;2023-06-01T06:54:45;97085.25;;;4.09;56.38
73103;BME280;61294;65.988;29.172;2023-06-01T06:57:11;97070.56;;;3.92;54.49
73103;BME280;61294;65.988;29.172;2023-06-01T06:59:37;97086.19;;;3.94;54.01
73103;BME280;61294;65.988;29.172;2023-06-01T07:02:03;97077.50;;;3.93;54.07
73103;BME280;61294;65.988;29.172;2023-06-01T07:04:29;97061.97;;;3.55;52.54
73103;BME280;61294;65.988;29.172;2023-06-01T07:06:55;97083.72;;;3.52;53.40
73103;BME280;61294;65.988;29.172;2023-06-01T07:09:21;97093.19;;;3.75;53.51
73103;BME280;61294;65.988;29.172;2023-06-01T07:11:47;97092.38;;;3.50;52.07
73103;BME280;61294;65.988;29.172;2023-06-01T07:14:13;97094.97;;;3.50;51.57
73103;BME280;61294;65.988;29.172;2023-06-01T07:16:39;97092.34;;;3.65;53.18
73103;BME280;61294;65.988;29.172;2023-06-01T07:19:06;97094.09;;;3.55;52.53
73103;BME280;61294;65.988;29.172;2023-06-01T07:21:31;97099.31;;;3.49;52.32
73103;BME280;61294;65.988;29.172;2023-06-01T07:23:58;97092.38;;;3.37;52.87
73103;BME280;61294;65.988;29.172;2023-06-01T07:26:24;97098.47;;;3.42;53.96
73103;BME280;61294;65.988;29.172;2023-06-01T07:28:51;97094.97;;;3.56;53.72
73103;BME280;61294;65.988;29.172;2023-06-01T07:31:19;97103.66;;;3.61;53.91
73103;BME280;61294;65.988;29.172;2023-06-01T07:33:45;97092.38;;;3.56;52.46
73103;BME280;61294;65.988;29.172;2023-06-01T07:36:11;97087.16;;;3.65;51.42
73103;BME280;61294;65.988;29.172;2023-06-01T07:38:37;97067.09;;;3.86;51.97
73103;BME280;61294;65.988;29.172;2023-06-01T07:41:03;97069.63;;;4.07;52.84
73103;BME280;61294;65.988;29.172;2023-06-01T07:43:29;97072.91;;;4.49;53.36
73103;BME280;61294;65.988;29.172;2023-06-01T07:45:55;97066.69;;;4.71;52.82
73103;BME280;61294;65.988;29.172;2023-06-01T07:48:20;97080.50;;;4.83;50.37
73103;BME280;61294;65.988;29.172;2023-06-01T07:50:46;97069.31;;;4.63;47.91
73103;BME280;61294;65.988;29.172;2023-06-01T07:53:12;97063.09;;;4.84;47.35
73103;BME280;61294;65.988;29.172;2023-06-01T07:55:38;97074.13;;;5.22;46.04
73103;BME280;61294;65.988;29.172;2023-06-01T07:58:04;97062.66;;;5.36;46.55
73103;BME280;61294;65.988;29.172;2023-06-01T08:00:30;97076.28;;;5.68;42.64
73103;BME280;61294;65.988;29.172;2023-06-01T08:02:56;97026.94;;;5.40;43.56
73103;BME280;61294;65.988;29.172;2023-06-01T08:05:24;97077.44;;;6.23;44.75
73103;BME280;61294;65.988;29.172;2023-06-01T08:07:50;97092.53;;;5.98;41.07
73103;BME280;61294;65.988;29.172;2023-06-01T08:10:16;97107.50;;;5.80;41.55
73103;BME280;61294;65.988;29.172;2023-06-01T08:12:41;97094.31;;;5.91;42.58
73103;BME280;61294;65.988;29.172;2023-06-01T08:15:10;97049.56;;;6.20;42.95
73103;BME280;61294;65.988;29.172;2023-06-01T08:17:36;97091.09;;;6.44;41.82
73103;BME280;61294;65.988;29.172;2023-06-01T08:20:02;97095.66;;;6.28;40.79
73103;BME280;61294;65.988;29.172;2023-06-01T08:22:34;97084.16;;;6.41;41.29
73103;BME280;61294;65.988;29.172;2023-06-01T08:25:00;97099.56;;;6.61;39.82
73103;BME280;61294;65.988;29.172;2023-06-01T08:27:26;97100.97;;;6.88;40.08
73103;BME280;61294;65.988;29.172;2023-06-01T08:29:53;97097.63;;;7.33;40.64
73103;BME280;61294;65.988;29.172;2023-06-01T08:32:19;97062.34;;;7.03;38.96
73103;BME280;61294;65.988;29.172;2023-06-01T08:34:46;97081.81;;;6.85;37.39
73103;BME280;61294;65.988;29.172;2023-06-01T08:37:13;97104.41;;;6.90;39.58
73103;BME280;61294;65.988;29.172;2023-06-01T08:39:41;97090.00;;;7.19;38.82
73103;BME280;61294;65.988;29.172;2023-06-01T08:45:12;97115.97;;;7.33;40.34
73103;BME280;61294;65.988;29.172;2023-06-01T08:47:39;97112.75;;;7.16;38.12
73103;BME280;61294;65.988;29.172;2023-06-01T08:50:06;97120.63;;;7.16;38.19
73103;BME280;61294;65.988;29.172;2023-06-01T08:52:34;97126.47;;;7.83;40.11
73103;BME280;61294;65.988;29.172;2023-06-01T08:55:03;97113.66;;;7.66;37.46
73103;BME280;61294;65.988;29.172;2023-06-01T08:57:29;97129.25;;;7.74;37.31
73103;BME280;61294;65.988;29.172;2023-06-01T08:59:56;97129.75;;;7.45;38.19
73103;BME280;61294;65.988;29.172;2023-06-01T09:02:22;97137.47;;;7.52;37.88
73103;BME280;61294;65.988;29.172;2023-06-01T09:04:49;97143.06;;;7.31;35.67
73103;BME280;61294;65.988;29.172;2023-06-01T09:07:15;97106.63;;;7.18;34.72
73103;BME280;61294;65.988;29.172;2023-06-01T09:09:42;97134.44;;;7.25;35.75
73103;BME280;61294;65.988;29.172;2023-06-01T09:12:29;97137.03;;;7.27;36.06
73103;BME280;61294;65.988;29.172;2023-06-01T09:15:13;97119.69;;;8.18;36.34
73103;BME280;61294;65.988;29.172;2023-06-01T09:17:44;97127.66;;;8.57;35.50
73103;BME280;61294;65.988;29.172;2023-06-01T09:20:25;97130.41;;;8.53;35.75
73103;BME280;61294;65.988;29.172;2023-06-01T09:22:52;97098.75;;;8.15;34.56
73103;BME280;61294;65.988;29.172;2023-06-01T09:25:24;97127.19;;;8.37;35.88
73103;BME280;61294;65.988;29.172;2023-06-01T09:27:53;97116.97;;;8.67;35.93
73103;BME280;61294;65.988;29.172;2023-06-01T09:30:21;97125.09;;;8.96;37.33
73103;BME280;61294;65.988;29.172;2023-06-01T09:32:49;97113.84;;;9.27;35.44
73103;BME280;61294;65.988;29.172;2023-06-01T09:35:40;97113.91;;;9.60;34.72
73103;BME280;61294;65.988;29.172;2023-06-01T09:38:06;97116.84;;;9.82;36.59
73103;BME280;61294;65.988;29.172;2023-06-01T09:40:32;97120.34;;;10.49;34.83
73103;BME280;61294;65.988;29.172;2023-06-01T09:42:59;97115.47;;;11.50;34.90
73103;BME280;61294;65.988;29.172;2023-06-01T09:45:25;97120.22;;;11.38;32.55
73103;BME280;61294;65.988;29.172;2023-06-01T09:47:51;97110.84;;;13.27;29.61
73103;BME280;61294;65.988;29.172;2023-06-01T09:50:37;97107.41;;;15.99;26.78
73103;BME280;61294;65.988;29.172;2023-06-01T09:53:04;97102.09;;;15.28;28.35
73103;BME280;61294;65.988;29.172;2023-06-01T09:55:30;97086.75;;;13.98;30.03
73103;BME280;61294;65.988;29.172;2023-06-01T09:58:21;97102.53;;;17.56;27.49
73103;BME280;61294;65.988;29.172;2023-06-01T10:00:49;97114.06;;;15.54;27.70
73103;BME280;61294;65.988;29.172;2023-06-01T10:03:16;97109.63;;;16.25;23.64
73103;BME280;61294;65.988;29.172;2023-06-01T10:05:43;97110.91;;;16.17;24.25
73103;BME280;61294;65.988;29.172;2023-06-01T10:08:11;97116.75;;;13.11;27.67
73103;BME280;61294;65.988;29.172;2023-06-01T10:10:38;97118.16;;;13.42;29.44
73103;BME280;61294;65.988;29.172;2023-06-01T10:13:04;97107.88;;;19.59;23.47
73103;BME280;61294;65.988;29.172;2023-06-01T10:15:32;97103.47;;;21.03;20.56
73103;BME280;61294;65.988;29.172;2023-06-01T10:17:59;97104.09;;;22.63;19.54
73103;BME280;61294;65.988;29.172;2023-06-01T10:20:25;97090.44;;;22.89;18.05
73103;BME280;61294;65.988;29.172;2023-06-01T10:22:52;97107.59;;;15.77;24.40
73103;BME280;61294;65.988;29.172;2023-06-01T10:25:20;97113.94;;;14.22;26.58
73103;BME280;61294;65.988;29.172;2023-06-01T10:27:58;97122.88;;;18.03;21.37
73103;BME280;61294;65.988;29.172;2023-06-01T10:30:26;97085.28;;;19.78;20.42
73103;BME280;61294;65.988;29.172;2023-06-01T10:32:52;97100.44;;;21.93;18.80
73103;BME280;61294;65.988;29.172;2023-06-01T10:40:43;97108.97;;;24.35;16.97
73103;BME280;61294;65.988;29.172;2023-06-01T10:46:42;97099.53;;;17.46;21.92
73103;BME280;61294;65.988;29.172;2023-06-01T10:49:08;97101.00;;;15.86;24.72
73103;BME280;61294;65.988;29.172;2023-06-01T10:51:34;97090.94;;;17.87;21.78
73103;BME280;61294;65.988;29.172;2023-06-01T10:54:26;97085.69;;;24.97;17.63
73103;BME280;61294;65.988;29.172;2023-06-01T10:59:44;97104.72;;;21.47;18.59
73103;BME280;61294;65.988;29.172;2023-06-01T11:02:10;97101.88;;;24.76;16.29
73103;BME280;61294;65.988;29.172;2023-06-01T11:04:36;97090.41;;;25.65;15.99
73103;BME280;61294;65.988;29.172;2023-06-01T11:07:34;97092.75;;;20.13;20.05
73103;BME280;61294;65.988;29.172;2023-06-01T11:10:02;97111.47;;;16.58;23.12
73103;BME280;61294;65.988;29.172;2023-06-01T11:15:34;97120.59;;;14.72;25.13
73103;BME280;61294;65.988;29.172;2023-06-01T11:21:05;97132.91;;;12.80;27.54
73103;BME280;61294;65.988;29.172;2023-06-01T11:23:33;97138.72;;;13.12;26.58
73103;BME280;61294;65.988;29.172;2023-06-01T11:26:05;97116.72;;;14.98;23.92
73103;BME280;61294;65.988;29.172;2023-06-01T11:28:32;97099.03;;;17.23;22.04
73103;BME280;61294;65.988;29.172;2023-06-01T11:31:00;97116.16;;;21.86;21.00
73103;BME280;61294;65.988;29.172;2023-06-01T11:33:28;97094.63;;;20.38;19.83
73103;BME280;61294;65.988;29.172;2023-06-01T11:35:59;97124.25;;;15.44;23.28
73103;BME280;61294;65.988;29.172;2023-06-01T11:38:35;97136.53;;;15.83;24.34
73103;BME280;61294;65.988;29.172;2023-06-01T11:41:02;97137.72;;;15.22;24.86
73103;BME280;61294;65.988;29.172;2023-06-01T11:43:32;97148.78;;;13.92;26.70
73103;BME280;61294;65.988;29.172;2023-06-01T11:46:05;97151.75;;;11.97;26.79
73103;BME280;61294;65.988;29.172;2023-06-01T11:48:32;97126.84;;;11.23;27.67
73103;BME280;61294;65.988;29.172;2023-06-01T11:51:00;97114.84;;;11.15;27.94
73103;BME280;61294;65.988;29.172;2023-06-01T11:53:28;97132.50;;;12.91;29.40
73103;BME280;61294;65.988;29.172;2023-06-01T11:55:56;97135.22;;;15.73;24.47
73103;BME280;61294;65.988;29.172;2023-06-01T11:58:26;97134.31;;;16.62;24.10
73103;BME280;61294;65.988;29.172;2023-06-01T12:00:53;97137.53;;;15.44;24.63
73103;BME280;61294;65.988;29.172;2023-06-01T12:03:19;97115.06;;;15.88;25.93
73103;BME280;61294;65.988;29.172;2023-06-01T12:05:46;97142.84;;;12.73;26.04
73103;BME280;61294;65.988;29.172;2023-06-01T12:10:45;97154.69;;;11.61;28.59
73103;BME280;61294;65.988;29.172;2023-06-01T12:13:18;97147.00;;;11.26;29.43
73103;BME280;61294;65.988;29.172;2023-06-01T12:15:45;97117.78;;;11.32;28.47
73103;BME280;61294;65.988;29.172;2023-06-01T12:18:11;97140.41;;;11.93;29.12
73103;BME280;61294;65.988;29.172;2023-06-01T12:20:39;97149.06;;;12.49;29.71
73103;BME280;61294;65.988;29.172;2023-06-01T12:25:36;97133.69;;;11.84;29.05
73103;BME280;61294;65.988;29.172;2023-06-01T12:28:03;97134.44;;;11.61;27.65
73103;BME280;61294;65.988;29.172;2023-06-01T12:30:29;97141.63;;;11.29;29.20
73103;BME280;61294;65.988;29.172;2023-06-01T12:32:56;97150.84;;;11.14;28.93
73103;BME280;61294;65.988;29.172;2023-06-01T12:35:21;97143.94;;;10.82;29.08
73103;BME280;61294;65.988;29.172;2023-06-01T12:38:03;97130.22;;;11.29;28.60
73103;BME280;61294;65.988;29.172;2023-06-01T12:40:29;97150.91;;;10.55;28.98
73103;BME280;61294;65.988;29.172;2023-06-01T12:42:55;97129.69;;;10.59;31.17
73103;BME280;61294;65.988;29.172;2023-06-01T12:45:21;97138.66;;;10.52;29.62
73103;BME280;61294;65.988;29.172;2023-06-01T12:47:47;97141.84;;;10.63;28.57
73103;BME280;61294;65.988;29.172;2023-06-01T12:50:13;97120.59;;;10.69;29.84
73103;BME280;61294;65.988;29.172;2023-06-01T12:52:40;97144.22;;;10.73;28.29
73103;BME280;61294;65.988;29.172;2023-06-01T12:55:08;97136.72;;;10.88;29.27
73103;BME280;61294;65.988;29.172;2023-06-01T12:57:35;97141.31;;;11.38;30.01
73103;BME280;61294;65.988;29.172;2023-06-01T13:00:04;97131.44;;;10.88;28.57
73103;BME280;61294;65.988;29.172;2023-06-01T13:02:30;97152.97;;;11.31;30.11
73103;BME280;61294;65.988;29.172;2023-06-01T13:04:56;97154.16;;;10.93;29.42
73103;BME280;61294;65.988;29.172;2023-06-01T13:07:24;97134.69;;;10.37;30.49
73103;BME280;61294;65.988;29.172;2023-06-01T13:09:50;97161.06;;;10.01;31.22
73103;BME280;61294;65.988;29.172;2023-06-01T13:12:17;97167.22;;;10.33;30.71
73103;BME280;61294;65.988;29.172;2023-06-01T13:14:43;97162.44;;;9.81;31.09
73103;BME280;61294;65.988;29.172;2023-06-01T13:17:08;97164.91;;;9.89;31.88
73103;BME280;61294;65.988;29.172;2023-06-01T13:19:34;97157.84;;;10.56;32.82
73103;BME280;61294;65.988;29.172;2023-06-01T13:22:00;97131.34;;;11.20;31.37
73103;BME280;61294;65.988;29.172;2023-06-01T13:24:26;97159.78;;;11.92;29.32
73103;BME280;61294;65.988;29.172;2023-06-01T13:26:52;97162.13;;;11.48;30.49
73103;BME280;61294;65.988;29.172;2023-06-01T13:29:17;97161.50;;;11.11;29.99
73103;BME280;61294;65.988;29.172;2023-06-01T13:31:43;97169.88;;;11.52;31.13
73103;BME280;61294;65.988;29.172;2023-06-01T13:34:09;97171.50;;;12.35;31.18
73103;BME280;61294;65.988;29.172;2023-06-01T13:36:35;97158.59;;;12.02;30.43
73103;BME280;61294;65.988;29.172;2023-06-01T13:39:00;97147.31;;;11.70;31.16
73103;BME280;61294;65.988;29.172;2023-06-01T13:41:29;97176.50;;;10.79;30.51
73103;BME280;61294;65.988;29.172;2023-06-01T13:43:55;97182.41;;;10.87;31.87
73103;BME280;61294;65.988;29.172;2023-06-01T13:46:21;97180.22;;;11.58;31.46
73103;BME280;61294;65.988;29.172;2023-06-01T13:48:46;97184.66;;;11.00;31.77
73103;BME280;61294;65.988;29.172;2023-06-01T13:51:12;97158.72;;;10.25;32.18
73103;BME280;61294;65.988;29.172;2023-06-01T13:53:38;97167.31;;;9.97;33.14
73103;BME280;61294;65.988;29.172;2023-06-01T13:56:04;97169.63;;;10.09;33.15
73103;BME280;61294;65.988;29.172;2023-06-01T13:58:31;97171.69;;;9.98;32.73
73103;BME280;61294;65.988;29.172;2023-06-01T14:00:57;97175.53;;;10.19;32.71
73103;BME280;61294;65.988;29.172;2023-06-01T14:03:23;97202.19;;;10.71;33.69
73103;BME280;61294;65.988;29.172;2023-06-01T14:05:48;97202.91;;;10.46;34.08
73103;BME280;61294;65.988;29.172;2023-06-01T14:08:14;97166.88;;;10.47;31.95
73103;BME280;61294;65.988;29.172;2023-06-01T14:10:40;97179.91;;;10.83;31.97
73103;BME280;61294;65.988;29.172;2023-06-01T14:13:06;97187.78;;;11.13;32.91
73103;BME280;61294;65.988;29.172;2023-06-01T14:15:32;97166.88;;;10.78;31.19
73103;BME280;61294;65.988;29.172;2023-06-01T14:17:58;97169.81;;;10.36;31.52
73103;BME280;61294;65.988;29.172;2023-06-01T14:20:24;97176.16;;;9.94;32.07
73103;BME280;61294;65.988;29.172;2023-06-01T14:22:50;97191.81;;;10.33;32.82
73103;BME280;61294;65.988;29.172;2023-06-01T14:25:15;97172.84;;;9.88;32.88
73103;BME280;61294;65.988;29.172;2023-06-01T14:27:41;97213.84;;;9.59;34.90
73103;BME280;61294;65.988;29.172;2023-06-01T14:30:07;97203.97;;;9.31;34.96
73103;BME280;61294;65.988;29.172;2023-06-01T14:32:36;97192.50;;;9.35;34.52
73103;BME280;61294;65.988;29.172;2023-06-01T14:35:02;97194.31;;;9.31;35.19
73103;BME280;61294;65.988;29.172;2023-06-01T14:37:30;97204.91;;;8.89;35.30
73103;BME280;61294;65.988;29.172;2023-06-01T14:39:56;97228.28;;;9.00;34.88
73103;BME280;61294;65.988;29.172;2023-06-01T14:42:25;97225.56;;;9.05;34.99
73103;BME280;61294;65.988;29.172;2023-06-01T14:44:51;97219.03;;;8.82;34.56
73103;BME280;61294;65.988;29.172;2023-06-01T14:47:16;97195.63;;;9.12;36.56
73103;BME280;61294;65.988;29.172;2023-06-01T14:49:42;97223.97;;;8.97;34.92
73103;BME280;61294;65.988;29.172;2023-06-01T14:52:11;97239.72;;;8.97;35.98
73103;BME280;61294;65.988;29.172;2023-06-01T14:54:40;97233.78;;;8.89;35.61
73103;BME280;61294;65.988;29.172;2023-06-01T14:57:09;97214.88;;;8.72;36.36
73103;BME280;61294;65.988;29.172;2023-06-01T14:59:38;97233.09;;;8.33;36.94
73103;BME280;61294;65.988;29.172;2023-06-01T15:02:04;97239.91;;;8.43;38.51
73103;BME280;61294;65.988;29.172;2023-06-01T15:04:32;97232.88;;;8.46;38.71
73103;BME280;61294;65.988;29.172;2023-06-01T15:06:59;97246.94;;;8.39;38.49
73103;BME280;61294;65.988;29.172;2023-06-01T15:09:27;97254.03;;;7.84;37.75
73103;BME280;61294;65.988;29.172;2023-06-01T15:11:53;97236.22;;;7.50;39.34
73103;BME280;61294;65.988;29.172;2023-06-01T15:14:20;97233.34;;;7.66;38.88
73103;BME280;61294;65.988;29.172;2023-06-01T15:16:46;97256.72;;;7.81;39.66
73103;BME280;61294;65.988;29.172;2023-06-01T15:19:12;97247.78;;;7.91;39.08
73103;BME280;61294;65.988;29.172;2023-06-01T15:21:38;97246.81;;;7.42;39.68